sensor_id;sensor_type;location;lat;lon;timestamp;pressure;altitude;pressure_sealevel;temperature;humidity
55538;BME280;41383;51.418;7.286;2023-04-21T00:02:01;99709.38;;;9.34;79.54
55538;BME280;41383;51.418;7.286;2023-04-21T00:04:27;99714.25;;;9.32;80.02
55538;BME280;41383;51.418;7.286;2023-04-21T00:06:52;99715.66;;;9.34;79.50
55538;BME280;41383;51.418;7.286;2023-04-21T00:09:19;99720.38;;;9.44;79.19
55538;BME280;41383;51.418;7.286;2023-04-21T00:11:44;99711.59;;;9.37;79.31
55538;BME280;41383;51.418;7.286;2023-04-21T00:14:10;99715.97;;;9.38;79.58
55538;BME280;41383;51.418;7.286;2023-04-21T00:16:35;99712.84;;;9.57;78.80
55538;BME280;41383;51.418;7.286;2023-04-21T00:19:00;99712.22;;;9.44;79.12
55538;BME280;41383;51.418;7.286;2023-04-21T00:21:26;99719.78;;;9.37;79.34
55538;BME280;41383;51.418;7.286;2023-04-21T00:23:52;99714.16;;;9.21;80.34
55538;BME280;41383;51.418;7.286;2023-04-21T00:26:18;99706.56;;;9.23;80.04
55538;BME280;41383;51.418;7.286;2023-04-21T00:28:45;99706.63;;;9.29;80.25
55538;BME280;41383;51.418;7.286;2023-04-21T00:31:10;99701.28;;;9.11;81.17
55538;BME280;41383;51.418;7.286;2023-04-21T00:33:35;99689.38;;;9.45;79.74
55538;BME280;41383;51.418;7.286;2023-04-21T00:36:00;99692.22;;;9.61;79.02
55538;BME280;41383;51.418;7.286;2023-04-21T00:38:26;99685.66;;;9.62;78.52
55538;BME280;41383;51.418;7.286;2023-04-21T00:40:51;99681.06;;;9.63;79.09
55538;BME280;41383;51.418;7.286;2023-04-21T00:43:16;99683.47;;;9.59;79.29
55538;BME280;41383;51.418;7.286;2023-04-21T00:45:44;99687.72;;;9.44;79.74
55538;BME280;41383;51.418;7.286;2023-04-21T00:48:10;99683.69;;;9.52;79.74
55538;BME280;41383;51.418;7.286;2023-04-21T00:50:35;99688.25;;;9.41;80.36
55538;BME280;41383;51.418;7.286;2023-04-21T00:53:01;99686.59;;;9.40;80.61
55538;BME280;41383;51.418;7.286;2023-04-21T00:55:26;99675.50;;;9.47;80.62
55538;BME280;41383;51.418;7.286;2023-04-21T00:57:52;99677.00;;;9.65;79.23
55538;BME280;41383;51.418;7.286;2023-04-21T01:00:25;99689.69;;;9.54;80.04
55538;BME280;41383;51.418;7.286;2023-04-21T01:02:50;99683.41;;;9.49;80.11
55538;BME280;41383;51.418;7.286;2023-04-21T01:05:15;99681.88;;;9.30;81.11
55538;BME280;41383;51.418;7.286;2023-04-21T01:07:42;99680.19;;;9.57;80.03
55538;BME280;41383;51.418;7.286;2023-04-21T01:10:08;99683.94;;;9.45;80.02
55538;BME280;41383;51.418;7.286;2023-04-21T01:12:44;99681.06;;;9.30;81.13
55538;BME280;41383;51.418;7.286;2023-04-21T01:15:11;99693.78;;;9.24;81.54
55538;BME280;41383;51.418;7.286;2023-04-21T01:17:37;99684.16;;;9.44;80.56
55538;BME280;41383;51.418;7.286;2023-04-21T01:20:07;99679.94;;;9.26;81.63
55538;BME280;41383;51.418;7.286;2023-04-21T01:22:36;99672.00;;;9.52;80.65
55538;BME280;41383;51.418;7.286;2023-04-21T01:25:02;99657.38;;;9.63;79.73
55538;BME280;41383;51.418;7.286;2023-04-21T01:27:28;99657.13;;;9.65;79.85
55538;BME280;41383;51.418;7.286;2023-04-21T01:29:53;99648.44;;;9.68;80.01
55538;BME280;41383;51.418;7.286;2023-04-21T01:32:22;99649.50;;;9.62;79.99
55538;BME280;41383;51.418;7.286;2023-04-21T01:34:47;99651.72;;;9.70;79.97
55538;BME280;41383;51.418;7.286;2023-04-21T01:37:15;99656.34;;;9.69;79.86
55538;BME280;41383;51.418;7.286;2023-04-21T01:39:44;99663.69;;;9.69;80.29
55538;BME280;41383;51.418;7.286;2023-04-21T01:42:11;99655.22;;;9.65;80.74
55538;BME280;41383;51.418;7.286;2023-04-21T01:44:37;99641.00;;;9.58;80.55
55538;BME280;41383;51.418;7.286;2023-04-21T01:47:03;99674.47;;;9.53;80.93
55538;BME280;41383;51.418;7.286;2023-04-21T01:49:28;99677.03;;;9.38;81.68
55538;BME280;41383;51.418;7.286;2023-04-21T01:51:54;99680.03;;;9.36;82.00
55538;BME280;41383;51.418;7.286;2023-04-21T01:54:19;99669.75;;;9.43;82.39
55538;BME280;41383;51.418;7.286;2023-04-21T01:56:44;99668.72;;;9.50;81.79
55538;BME280;41383;51.418;7.286;2023-04-21T01:59:10;99672.66;;;9.31;81.97
55538;BME280;41383;51.418;7.286;2023-04-21T02:01:35;99669.13;;;9.36;82.30
55538;BME280;41383;51.418;7.286;2023-04-21T02:04:02;99667.13;;;9.21;83.07
55538;BME280;41383;51.418;7.286;2023-04-21T02:06:28;99659.97;;;9.15;83.57
55538;BME280;41383;51.418;7.286;2023-04-21T02:08:55;99649.28;;;9.36;82.66
55538;BME280;41383;51.418;7.286;2023-04-21T02:11:20;99648.59;;;9.56;81.34
55538;BME280;41383;51.418;7.286;2023-04-21T02:13:46;99651.94;;;9.63;81.14
55538;BME280;41383;51.418;7.286;2023-04-21T02:16:11;99648.44;;;9.68;80.92
55538;BME280;41383;51.418;7.286;2023-04-21T02:18:36;99649.50;;;9.67;80.78
55538;BME280;41383;51.418;7.286;2023-04-21T02:21:04;99647.13;;;9.76;80.21
55538;BME280;41383;51.418;7.286;2023-04-21T02:23:30;99658.03;;;9.43;81.91
55538;BME280;41383;51.418;7.286;2023-04-21T02:25:55;99636.75;;;9.34;82.60
55538;BME280;41383;51.418;7.286;2023-04-21T02:28:20;99636.88;;;9.50;81.40
55538;BME280;41383;51.418;7.286;2023-04-21T02:30:46;99651.03;;;9.19;83.02
55538;BME280;41383;51.418;7.286;2023-04-21T02:33:11;99652.41;;;9.22;83.36
55538;BME280;41383;51.418;7.286;2023-04-21T02:35:36;99654.47;;;9.37;82.81
55538;BME280;41383;51.418;7.286;2023-04-21T02:38:01;99656.09;;;9.38;82.52
55538;BME280;41383;51.418;7.286;2023-04-21T02:40:31;99647.53;;;9.57;81.76
55538;BME280;41383;51.418;7.286;2023-04-21T02:42:56;99648.69;;;9.66;81.32
55538;BME280;41383;51.418;7.286;2023-04-21T02:45:21;99644.63;;;9.69;81.11
55538;BME280;41383;51.418;7.286;2023-04-21T02:47:47;99641.53;;;9.55;81.82
55538;BME280;41383;51.418;7.286;2023-04-21T02:50:12;99643.34;;;9.44;82.55
55538;BME280;41383;51.418;7.286;2023-04-21T02:52:38;99644.56;;;9.58;81.81
55538;BME280;41383;51.418;7.286;2023-04-21T02:55:03;99637.22;;;9.59;81.60
55538;BME280;41383;51.418;7.286;2023-04-21T02:57:29;99631.22;;;9.62;81.64
55538;BME280;41383;51.418;7.286;2023-04-21T02:59:54;99642.16;;;9.67;80.85
55538;BME280;41383;51.418;7.286;2023-04-21T03:02:19;99644.34;;;9.65;81.10
55538;BME280;41383;51.418;7.286;2023-04-21T03:04:45;99645.38;;;9.59;81.57
55538;BME280;41383;51.418;7.286;2023-04-21T03:07:11;99658.34;;;9.46;82.06
55538;BME280;41383;51.418;7.286;2023-04-21T03:09:38;99653.34;;;9.33;82.83
55538;BME280;41383;51.418;7.286;2023-04-21T03:12:03;99664.34;;;9.16;83.42
55538;BME280;41383;51.418;7.286;2023-04-21T03:14:28;99661.69;;;9.21;83.94
55538;BME280;41383;51.418;7.286;2023-04-21T03:16:53;99669.56;;;9.22;83.81
55538;BME280;41383;51.418;7.286;2023-04-21T03:19:19;99656.09;;;9.38;82.86
55538;BME280;41383;51.418;7.286;2023-04-21T03:21:44;99660.09;;;9.25;83.26
55538;BME280;41383;51.418;7.286;2023-04-21T03:24:10;99661.28;;;9.07;84.04
55538;BME280;41383;51.418;7.286;2023-04-21T03:26:38;99663.81;;;8.91;85.59
55538;BME280;41383;51.418;7.286;2023-04-21T03:29:03;99659.63;;;9.06;85.08
55538;BME280;41383;51.418;7.286;2023-04-21T03:31:29;99655.97;;;9.22;84.19
55538;BME280;41383;51.418;7.286;2023-04-21T03:33:54;99651.81;;;9.15;84.44
55538;BME280;41383;51.418;7.286;2023-04-21T03:36:19;99649.94;;;9.15;84.38
55538;BME280;41383;51.418;7.286;2023-04-21T03:38:44;99648.63;;;9.23;83.64
55538;BME280;41383;51.418;7.286;2023-04-21T03:41:10;99649.28;;;9.36;82.82
55538;BME280;41383;51.418;7.286;2023-04-21T03:43:35;99659.63;;;9.06;84.27
55538;BME280;41383;51.418;7.286;2023-04-21T03:46:00;99651.81;;;8.87;84.69
55538;BME280;41383;51.418;7.286;2023-04-21T03:48:26;99660.38;;;9.01;85.05
55538;BME280;41383;51.418;7.286;2023-04-21T03:50:52;99659.69;;;9.11;84.33
55538;BME280;41383;51.418;7.286;2023-04-21T03:53:17;99657.16;;;9.04;84.50
55538;BME280;41383;51.418;7.286;2023-04-21T03:55:42;99660.53;;;8.89;85.36
55538;BME280;41383;51.418;7.286;2023-04-21T03:58:08;99659.63;;;9.06;85.14
55538;BME280;41383;51.418;7.286;2023-04-21T04:00:33;99650.91;;;9.37;82.99
55538;BME280;41383;51.418;7.286;2023-04-21T04:02:58;99656.91;;;9.39;82.87
55538;BME280;41383;51.418;7.286;2023-04-21T04:05:23;99652.50;;;9.32;83.09
55538;BME280;41383;51.418;7.286;2023-04-21T04:07:49;99644.19;;;9.44;82.43
55538;BME280;41383;51.418;7.286;2023-04-21T04:10:14;99652.78;;;9.31;82.46
55538;BME280;41383;51.418;7.286;2023-04-21T04:12:39;99661.56;;;9.10;83.79
55538;BME280;41383;51.418;7.286;2023-04-21T04:15:05;99658.78;;;9.05;84.63
55538;BME280;41383;51.418;7.286;2023-04-21T04:17:31;99645.47;;;9.04;84.33
55538;BME280;41383;51.418;7.286;2023-04-21T04:19:57;99636.97;;;9.28;83.55
55538;BME280;41383;51.418;7.286;2023-04-21T04:22:22;99636.09;;;9.22;83.48
55538;BME280;41383;51.418;7.286;2023-04-21T04:24:47;99639.72;;;9.00;84.81
55538;BME280;41383;51.418;7.286;2023-04-21T04:27:12;99639.53;;;9.07;84.34
55538;BME280;41383;51.418;7.286;2023-04-21T04:29:38;99642.28;;;9.12;84.48
55538;BME280;41383;51.418;7.286;2023-04-21T04:32:04;99634.97;;;9.18;84.07
55538;BME280;41383;51.418;7.286;2023-04-21T04:34:30;99639.19;;;9.31;83.23
55538;BME280;41383;51.418;7.286;2023-04-21T04:36:56;99654.44;;;9.04;84.31
55538;BME280;41383;51.418;7.286;2023-04-21T04:39:22;99642.13;;;8.96;84.48
55538;BME280;41383;51.418;7.286;2023-04-21T04:41:49;99642.06;;;8.91;85.38
55538;BME280;41383;51.418;7.286;2023-04-21T04:44:16;99641.69;;;9.05;84.53
55538;BME280;41383;51.418;7.286;2023-04-21T04:46:42;99641.13;;;9.03;84.67
55538;BME280;41383;51.418;7.286;2023-04-21T04:49:08;99646.03;;;9.06;84.71
55538;BME280;41383;51.418;7.286;2023-04-21T04:51:33;99641.06;;;9.30;83.15
55538;BME280;41383;51.418;7.286;2023-04-21T04:53:58;99647.66;;;9.40;83.02
55538;BME280;41383;51.418;7.286;2023-04-21T04:56:23;99656.53;;;9.25;82.90
55538;BME280;41383;51.418;7.286;2023-04-21T04:58:49;99654.41;;;9.32;82.74
55538;BME280;41383;51.418;7.286;2023-04-21T05:01:15;99645.13;;;9.28;nan
55538;BME280;41383;51.418;7.286;2023-04-21T05:03:41;99653.28;;;9.28;82.97
55538;BME280;41383;51.418;7.286;2023-04-21T05:06:06;99643.88;;;9.41;82.73
55538;BME280;41383;51.418;7.286;2023-04-21T05:08:31;99645.00;;;9.45;82.17
55538;BME280;41383;51.418;7.286;2023-04-21T05:10:57;99650.44;;;9.45;82.26
55538;BME280;41383;51.418;7.286;2023-04-21T05:13:22;99646.88;;;9.39;82.24
55538;BME280;41383;51.418;7.286;2023-04-21T05:15:48;99643.84;;;9.36;82.67
55538;BME280;41383;51.418;7.286;2023-04-21T05:18:13;99640.88;;;9.37;82.52
55538;BME280;41383;51.418;7.286;2023-04-21T05:20:41;99637.09;;;9.43;82.30
55538;BME280;41383;51.418;7.286;2023-04-21T05:23:07;99634.41;;;9.49;81.95
55538;BME280;41383;51.418;7.286;2023-04-21T05:25:32;99640.94;;;9.48;81.81
55538;BME280;41383;51.418;7.286;2023-04-21T05:27:57;99648.50;;;9.40;81.83
55538;BME280;41383;51.418;7.286;2023-04-21T05:30:23;99640.59;;;9.39;81.53
55538;BME280;41383;51.418;7.286;2023-04-21T05:32:49;99652.81;;;9.36;81.74
55538;BME280;41383;51.418;7.286;2023-04-21T05:35:14;99646.56;;;9.36;81.70
55538;BME280;41383;51.418;7.286;2023-04-21T05:37:40;99645.75;;;9.35;81.99
55538;BME280;41383;51.418;7.286;2023-04-21T05:40:06;99654.94;;;9.29;81.88
55538;BME280;41383;51.418;7.286;2023-04-21T05:42:31;99651.19;;;9.35;82.13
55538;BME280;41383;51.418;7.286;2023-04-21T05:44:56;99668.94;;;9.43;81.51
55538;BME280;41383;51.418;7.286;2023-04-21T05:47:22;99661.03;;;9.41;81.40
55538;BME280;41383;51.418;7.286;2023-04-21T05:49:50;99664.25;;;9.38;81.83
55538;BME280;41383;51.418;7.286;2023-04-21T05:52:16;99665.34;;;9.37;81.78
55538;BME280;41383;51.418;7.286;2023-04-21T05:54:41;99674.88;;;9.40;81.83
55538;BME280;41383;51.418;7.286;2023-04-21T05:57:07;99665.94;;;9.44;81.92
55538;BME280;41383;51.418;7.286;2023-04-21T05:59:32;99673.63;;;9.53;81.68
55538;BME280;41383;51.418;7.286;2023-04-21T06:01:58;99673.94;;;9.56;81.96
55538;BME280;41383;51.418;7.286;2023-04-21T06:04:23;99673.41;;;9.60;82.07
55538;BME280;41383;51.418;7.286;2023-04-21T06:06:48;99669.19;;;9.41;83.29
55538;BME280;41383;51.418;7.286;2023-04-21T06:09:14;99667.50;;;9.35;84.09
55538;BME280;41383;51.418;7.286;2023-04-21T06:11:40;99662.28;;;9.66;82.98
55538;BME280;41383;51.418;7.286;2023-04-21T06:14:05;99658.59;;;9.83;82.51
55538;BME280;41383;51.418;7.286;2023-04-21T06:16:30;99651.03;;;9.90;82.17
55538;BME280;41383;51.418;7.286;2023-04-21T06:18:58;99653.50;;;9.97;82.07
55538;BME280;41383;51.418;7.286;2023-04-21T06:21:23;99648.00;;;9.87;82.34
55538;BME280;41383;51.418;7.286;2023-04-21T06:23:48;99639.59;;;9.93;82.34
55538;BME280;41383;51.418;7.286;2023-04-21T06:26:14;99637.78;;;10.04;81.97
55538;BME280;41383;51.418;7.286;2023-04-21T06:28:39;99648.63;;;9.99;82.39
55538;BME280;41383;51.418;7.286;2023-04-21T06:31:04;99639.06;;;9.97;82.48
55538;BME280;41383;51.418;7.286;2023-04-21T06:33:31;99639.06;;;9.91;82.92
55538;BME280;41383;51.418;7.286;2023-04-21T06:35:56;99650.50;;;9.93;82.83
55538;BME280;41383;51.418;7.286;2023-04-21T06:38:21;99649.72;;;10.03;82.88
55538;BME280;41383;51.418;7.286;2023-04-21T06:40:47;99647.34;;;10.12;82.96
55538;BME280;41383;51.418;7.286;2023-04-21T06:43:12;99644.13;;;10.21;82.82
55538;BME280;41383;51.418;7.286;2023-04-21T06:45:37;99652.00;;;10.22;82.56
55538;BME280;41383;51.418;7.286;2023-04-21T06:48:03;99656.97;;;10.36;82.45
55538;BME280;41383;51.418;7.286;2023-04-21T06:50:28;99651.72;;;10.19;83.37
55538;BME280;41383;51.418;7.286;2023-04-21T06:52:53;99649.03;;;10.24;83.53
55538;BME280;41383;51.418;7.286;2023-04-21T06:55:19;99658.13;;;10.45;82.87
55538;BME280;41383;51.418;7.286;2023-04-21T06:57:44;99658.72;;;10.58;82.29
55538;BME280;41383;51.418;7.286;2023-04-21T07:00:10;99663.41;;;10.68;82.40
55538;BME280;41383;51.418;7.286;2023-04-21T07:02:35;99657.41;;;10.71;82.77
55538;BME280;41383;51.418;7.286;2023-04-21T07:05:01;99656.38;;;10.88;81.86
55538;BME280;41383;51.418;7.286;2023-04-21T07:07:26;99656.91;;;10.95;81.61
55538;BME280;41383;51.418;7.286;2023-04-21T07:09:51;99654.19;;;10.95;81.28
55538;BME280;41383;51.418;7.286;2023-04-21T07:12:16;99641.91;;;11.03;81.77
55538;BME280;41383;51.418;7.286;2023-04-21T07:14:42;99645.47;;;10.98;81.39
55538;BME280;41383;51.418;7.286;2023-04-21T07:17:07;99643.56;;;11.04;81.48
55538;BME280;41383;51.418;7.286;2023-04-21T07:19:32;99635.66;;;11.18;81.31
55538;BME280;41383;51.418;7.286;2023-04-21T07:21:57;99631.28;;;11.27;81.27
55538;BME280;41383;51.418;7.286;2023-04-21T07:24:23;99632.38;;;11.31;80.63
55538;BME280;41383;51.418;7.286;2023-04-21T07:26:48;99629.09;;;11.29;81.16
55538;BME280;41383;51.418;7.286;2023-04-21T07:29:13;99629.13;;;11.40;80.79
55538;BME280;41383;51.418;7.286;2023-04-21T07:31:39;99632.94;;;11.33;81.79
55538;BME280;41383;51.418;7.286;2023-04-21T07:34:04;99641.66;;;11.25;82.69
55538;BME280;41383;51.418;7.286;2023-04-21T07:36:29;99641.94;;;11.44;82.15
55538;BME280;41383;51.418;7.286;2023-04-21T07:38:55;99639.75;;;11.57;80.99
55538;BME280;41383;51.418;7.286;2023-04-21T07:41:21;99636.19;;;11.62;81.41
55538;BME280;41383;51.418;7.286;2023-04-21T07:43:46;99631.81;;;11.76;80.70
55538;BME280;41383;51.418;7.286;2023-04-21T07:46:11;99622.22;;;11.84;80.75
55538;BME280;41383;51.418;7.286;2023-04-21T07:48:38;99618.69;;;11.84;80.04
55538;BME280;41383;51.418;7.286;2023-04-21T07:51:03;99626.91;;;11.73;81.08
55538;BME280;41383;51.418;7.286;2023-04-21T07:53:29;99620.59;;;11.83;80.64
55538;BME280;41383;51.418;7.286;2023-04-21T07:55:54;99625.50;;;11.86;80.89
55538;BME280;41383;51.418;7.286;2023-04-21T07:58:20;99633.41;;;11.88;81.13
55538;BME280;41383;51.418;7.286;2023-04-21T08:00:46;99628.78;;;11.88;80.77
55538;BME280;41383;51.418;7.286;2023-04-21T08:03:11;99628.50;;;11.85;81.06
55538;BME280;41383;51.418;7.286;2023-04-21T08:05:36;99618.66;;;11.89;81.37
55538;BME280;41383;51.418;7.286;2023-04-21T08:08:02;99627.94;;;11.88;81.18
55538;BME280;41383;51.418;7.286;2023-04-21T08:10:27;99621.16;;;11.70;81.87
55538;BME280;41383;51.418;7.286;2023-04-21T08:12:52;99623.34;;;11.67;82.34
55538;BME280;41383;51.418;7.286;2023-04-21T08:15:18;99629.34;;;11.85;81.86
55538;BME280;41383;51.418;7.286;2023-04-21T08:17:43;99633.13;;;11.95;81.37
55538;BME280;41383;51.418;7.286;2023-04-21T08:20:09;99630.66;;;12.03;80.88
55538;BME280;41383;51.418;7.286;2023-04-21T08:22:34;99639.09;;;12.07;81.59
55538;BME280;41383;51.418;7.286;2023-04-21T08:25:01;99631.44;;;12.14;80.63
55538;BME280;41383;51.418;7.286;2023-04-21T08:27:27;99633.63;;;12.23;80.73
55538;BME280;41383;51.418;7.286;2023-04-21T08:29:52;99635.56;;;12.22;80.98
55538;BME280;41383;51.418;7.286;2023-04-21T08:32:17;99639.63;;;12.25;80.41
55538;BME280;41383;51.418;7.286;2023-04-21T08:34:48;99635.50;;;12.28;80.62
55538;BME280;41383;51.418;7.286;2023-04-21T08:37:14;99649.16;;;12.33;80.81
55538;BME280;41383;51.418;7.286;2023-04-21T08:39:39;99642.06;;;12.32;80.95
55538;BME280;41383;51.418;7.286;2023-04-21T08:42:06;99644.75;;;12.37;80.75
55538;BME280;41383;51.418;7.286;2023-04-21T08:44:32;99637.09;;;12.39;81.08
55538;BME280;41383;51.418;7.286;2023-04-21T08:46:58;99639.81;;;12.44;80.33
55538;BME280;41383;51.418;7.286;2023-04-21T08:49:28;99640.06;;;12.48;80.28
55538;BME280;41383;51.418;7.286;2023-04-21T08:51:53;99641.16;;;12.52;80.51
55538;BME280;41383;51.418;7.286;2023-04-21T08:54:19;99649.56;;;12.61;80.31
55538;BME280;41383;51.418;7.286;2023-04-21T08:56:46;99650.69;;;12.60;80.01
55538;BME280;41383;51.418;7.286;2023-04-21T08:59:11;99651.78;;;12.59;80.33
55538;BME280;41383;51.418;7.286;2023-04-21T09:02:09;99649.03;;;12.64;79.63
55538;BME280;41383;51.418;7.286;2023-04-21T09:04:45;99648.81;;;12.50;80.36
55538;BME280;41383;51.418;7.286;2023-04-21T09:07:11;99649.06;;;12.59;80.63
55538;BME280;41383;51.418;7.286;2023-04-21T09:09:56;99653.13;;;12.67;80.18
55538;BME280;41383;51.418;7.286;2023-04-21T09:12:22;99646.53;;;12.68;80.24
55538;BME280;41383;51.418;7.286;2023-04-21T09:14:48;99640.81;;;12.64;80.85
55538;BME280;41383;51.418;7.286;2023-04-21T09:17:17;99638.34;;;12.68;80.33
55538;BME280;41383;51.418;7.286;2023-04-21T09:19:43;99640.31;;;12.52;81.25
55538;BME280;41383;51.418;7.286;2023-04-21T09:22:08;99634.31;;;12.49;81.26
55538;BME280;41383;51.418;7.286;2023-04-21T09:24:43;99641.38;;;12.61;80.43
55538;BME280;41383;51.418;7.286;2023-04-21T09:27:09;99640.28;;;12.62;80.64
55538;BME280;41383;51.418;7.286;2023-04-21T09:29:34;99646.31;;;12.59;80.74
55538;BME280;41383;51.418;7.286;2023-04-21T09:32:00;99646.56;;;12.63;80.65
55538;BME280;41383;51.418;7.286;2023-04-21T09:34:25;99640.28;;;12.62;80.38
55538;BME280;41383;51.418;7.286;2023-04-21T09:37:02;99641.88;;;12.68;80.28
55538;BME280;41383;51.418;7.286;2023-04-21T09:39:28;99648.25;;;12.53;80.99
55538;BME280;41383;51.418;7.286;2023-04-21T09:41:54;99649.91;;;12.54;80.40
55538;BME280;41383;51.418;7.286;2023-04-21T09:44:21;99637.59;;;12.57;80.70
55538;BME280;41383;51.418;7.286;2023-04-21T09:46:50;99646.88;;;12.56;80.84
55538;BME280;41383;51.418;7.286;2023-04-21T09:49:21;99640.75;;;12.75;80.50
55538;BME280;41383;51.418;7.286;2023-04-21T09:51:47;99640.97;;;12.83;79.73
55538;BME280;41383;51.418;7.286;2023-04-21T09:54:16;99635.78;;;12.82;79.72
55538;BME280;41383;51.418;7.286;2023-04-21T09:56:43;99632.22;;;12.81;79.51
55538;BME280;41383;51.418;7.286;2023-04-21T09:59:17;99629.50;;;12.81;79.48
55538;BME280;41383;51.418;7.286;2023-04-21T10:01:44;99629.22;;;12.83;79.37
55538;BME280;41383;51.418;7.286;2023-04-21T10:04:13;99627.59;;;12.82;79.05
55538;BME280;41383;51.418;7.286;2023-04-21T10:06:39;99626.25;;;12.74;79.76
55538;BME280;41383;51.418;7.286;2023-04-21T10:09:07;99614.50;;;12.73;79.75
55538;BME280;41383;51.418;7.286;2023-04-21T10:11:34;99613.94;;;12.77;79.56
55538;BME280;41383;51.418;7.286;2023-04-21T10:14:00;99609.53;;;12.81;78.90
55538;BME280;41383;51.418;7.286;2023-04-21T10:16:26;99614.50;;;12.73;79.27
55538;BME280;41383;51.418;7.286;2023-04-21T10:18:51;99612.06;;;12.72;79.75
55538;BME280;41383;51.418;7.286;2023-04-21T10:21:18;99615.59;;;12.72;79.92
55538;BME280;41383;51.418;7.286;2023-04-21T10:23:49;99619.91;;;12.84;79.31
55538;BME280;41383;51.418;7.286;2023-04-21T10:26:33;99620.06;;;13.03;79.47
55538;BME280;41383;51.418;7.286;2023-04-21T10:36:31;99621.50;;;12.95;79.54
55538;BME280;41383;51.418;7.286;2023-04-21T10:39:00;99626.22;;;12.84;80.04
55538;BME280;41383;51.418;7.286;2023-04-21T10:41:32;99617.75;;;12.76;79.81
55538;BME280;41383;51.418;7.286;2023-04-21T10:44:10;99618.00;;;12.84;79.77
55538;BME280;41383;51.418;7.286;2023-04-21T10:46:46;99610.84;;;12.89;79.69
55538;BME280;41383;51.418;7.286;2023-04-21T10:49:24;99614.38;;;12.94;79.41
55538;BME280;41383;51.418;7.286;2023-04-21T10:57:13;99599.38;;;12.87;80.17
55538;BME280;41383;51.418;7.286;2023-04-21T10:59:39;99606.22;;;12.84;79.93
55538;BME280;41383;51.418;7.286;2023-04-21T11:02:05;99606.44;;;12.93;79.59
55538;BME280;41383;51.418;7.286;2023-04-21T11:04:34;99599.94;;;13.24;79.13
55538;BME280;41383;51.418;7.286;2023-04-21T11:07:06;99592.94;;;13.37;78.43
55538;BME280;41383;51.418;7.286;2023-04-21T11:09:35;99599.66;;;13.55;77.48
55538;BME280;41383;51.418;7.286;2023-04-21T11:12:03;99592.94;;;13.72;76.74
55538;BME280;41383;51.418;7.286;2023-04-21T11:14:31;99588.97;;;13.83;76.69
55538;BME280;41383;51.418;7.286;2023-04-21T11:16:57;99581.97;;;13.96;76.24
55538;BME280;41383;51.418;7.286;2023-04-21T11:19:22;99577.00;;;14.23;75.49
55538;BME280;41383;51.418;7.286;2023-04-21T11:21:49;99575.88;;;14.24;74.92
55538;BME280;41383;51.418;7.286;2023-04-21T11:24:15;99567.31;;;14.50;73.86
55538;BME280;41383;51.418;7.286;2023-04-21T11:26:40;99557.66;;;14.72;72.83
55538;BME280;41383;51.418;7.286;2023-04-21T11:29:07;99552.47;;;14.51;73.21
55538;BME280;41383;51.418;7.286;2023-04-21T11:31:35;99542.25;;;14.76;72.48
55538;BME280;41383;51.418;7.286;2023-04-21T11:34:02;99552.31;;;15.00;71.53
55538;BME280;41383;51.418;7.286;2023-04-21T11:36:34;99543.28;;;14.80;71.17
55538;BME280;41383;51.418;7.286;2023-04-21T11:39:07;99532.53;;;14.65;71.31
55538;BME280;41383;51.418;7.286;2023-04-21T11:41:33;99539.78;;;14.36;72.60
55538;BME280;41383;51.418;7.286;2023-04-21T11:44:00;99521.94;;;14.19;72.90
55538;BME280;41383;51.418;7.286;2023-04-21T11:46:27;99531.66;;;14.11;72.90
55538;BME280;41383;51.418;7.286;2023-04-21T11:49:05;99531.69;;;14.06;73.49
55538;BME280;41383;51.418;7.286;2023-04-21T11:51:34;99532.91;;;14.19;73.13
55538;BME280;41383;51.418;7.286;2023-04-21T11:54:00;99542.97;;;14.24;72.98
55538;BME280;41383;51.418;7.286;2023-04-21T11:56:26;99542.25;;;14.38;72.93
55538;BME280;41383;51.418;7.286;2023-04-21T11:58:51;99533.66;;;14.25;73.33
55538;BME280;41383;51.418;7.286;2023-04-21T12:01:20;99526.44;;;14.10;73.42
55538;BME280;41383;51.418;7.286;2023-04-21T12:03:53;99525.81;;;14.38;72.82
55538;BME280;41383;51.418;7.286;2023-04-21T12:06:27;99527.94;;;14.41;72.79
55538;BME280;41383;51.418;7.286;2023-04-21T12:09:00;99519.84;;;14.69;72.48
55538;BME280;41383;51.418;7.286;2023-04-21T12:11:27;99519.66;;;14.85;71.56
55538;BME280;41383;51.418;7.286;2023-04-21T12:13:52;99521.25;;;14.86;70.95
55538;BME280;41383;51.418;7.286;2023-04-21T12:16:18;99522.59;;;14.88;71.10
55538;BME280;41383;51.418;7.286;2023-04-21T12:18:43;99518.13;;;14.73;71.32
55538;BME280;41383;51.418;7.286;2023-04-21T12:21:13;99495.16;;;14.69;72.04
55538;BME280;41383;51.418;7.286;2023-04-21T12:23:38;99507.56;;;15.00;70.89
55538;BME280;41383;51.418;7.286;2023-04-21T12:26:04;99507.09;;;15.12;70.95
55538;BME280;41383;51.418;7.286;2023-04-21T12:28:29;99488.00;;;15.21;70.89
55538;BME280;41383;51.418;7.286;2023-04-21T12:30:55;99490.38;;;15.70;69.54
55538;BME280;41383;51.418;7.286;2023-04-21T12:33:20;99487.50;;;16.03;67.74
55538;BME280;41383;51.418;7.286;2023-04-21T12:35:45;99478.19;;;16.13;67.85
55538;BME280;41383;51.418;7.286;2023-04-21T12:38:11;99474.66;;;15.98;67.41
55538;BME280;41383;51.418;7.286;2023-04-21T12:40:36;99459.41;;;15.92;67.69
55538;BME280;41383;51.418;7.286;2023-04-21T12:43:01;99465.91;;;15.96;67.25
55538;BME280;41383;51.418;7.286;2023-04-21T12:45:27;99462.34;;;15.96;66.72
55538;BME280;41383;51.418;7.286;2023-04-21T12:47:52;99459.28;;;15.97;66.42
55538;BME280;41383;51.418;7.286;2023-04-21T12:50:19;99459.72;;;16.05;66.66
55538;BME280;41383;51.418;7.286;2023-04-21T12:52:44;99456.84;;;15.96;66.72
55538;BME280;41383;51.418;7.286;2023-04-21T12:55:09;99457.88;;;15.86;66.51
55538;BME280;41383;51.418;7.286;2023-04-21T12:57:35;99449.69;;;15.58;67.81
55538;BME280;41383;51.418;7.286;2023-04-21T13:00:00;99441.09;;;15.73;67.08
55538;BME280;41383;51.418;7.286;2023-04-21T13:02:25;99436.00;;;15.81;66.58
55538;BME280;41383;51.418;7.286;2023-04-21T13:04:51;99439.38;;;15.78;66.70
55538;BME280;41383;51.418;7.286;2023-04-21T13:07:16;99441.19;;;15.68;67.09
55538;BME280;41383;51.418;7.286;2023-04-21T13:09:45;99434.19;;;15.48;67.12
55538;BME280;41383;51.418;7.286;2023-04-21T13:12:10;99444.69;;;15.46;67.33
55538;BME280;41383;51.418;7.286;2023-04-21T13:14:36;99431.06;;;15.26;66.85